Strona główna
METAR-TAF:

METAR-TAF

Lotnisko :

Meriden-Markham Municipal Airport

Meriden, Connecticut, Stany Zjednoczone

Szerokość geograficzna: 41-30-35N, Długość geograficzna: 072-49-40W, wysokość: 31 m

Aktualna obserwacja pogody

Raport powstał 1 godzina i 3 minut temu, godzina 21:53 UTC
Wiatr 4 kt od północ
Temperatura 14°C
Wilgotność 44%
Ciśnienie 1015 hPa
Widzialność: 16.1 km
Zachmurzenie całkowite na wysokości 6000 ft

METAR: KMMK 042153Z AUTO 01004KT 10SM OVC060 14/02 A2997 RMK AO2 SLP149 T01390022

czas: 18:56 (22:56 UTC)


TAF: brakujący

Obserwacja i prognoza pogody dla ponad 4000 lotnisk (raport METAR i TAF).

Dostępne stacje oznaczono żółtymi i czerwonymi punktami na mapie.

Najedź kursorem aby zobaczyć nazwę stacji.

Kliknij aby zobaczyć obserwacje i prognozy pogody.

Aby zmienić mapę: kliknij na zielony przycisk z czarnym krzyżykiem, aby powiększyć; na zielony przycisk z myślnikiem, aby pomniejszyć; na zielone strzałki, aby przejść do map sąsiednich.


METAR-TAF: